Time;durP1;ratioP1;P1;durP2;ratioP2;P2;SDS_P1;SDS_P2;PMS_P1;PMS_P2;Temp;Humidity;BMP_temperature;BMP_pressure;BME280_temperature;BME280_humidity;BME280_pressure;Samples;Min_cycle;Max_cycle;Signal;HPM_P1;HPM_P2
2024/03/29 01:45:26;;;;;;;0.10;0.10;;;;;;;;;;5015416;28;20287;-66
2024/03/29 01:47:53;;;;;;;0.20;0.20;;;;;;;;;;5042763;28;20211;-66
2024/03/29 01:50:19;;;;;;;0.20;0.20;;;;;;;;;;5033395;28;20235;-66
2024/03/29 01:52:48;;;;;;;0.10;0.10;;;;;;;;;;5042764;28;20517;-66
2024/03/29 01:55:14;;;;;;;0.10;0.10;;;;;;;;;;5033369;28;20208;-66
2024/03/29 01:57:41;;;;;;;0.20;0.20;;;;;;;;;;5041564;28;20215;-66
2024/03/29 02:00:10;;;;;;;0.13;0.13;;;;;;;;;;5043676;28;20212;-67
2024/03/29 02:02:37;;;;;;;0.10;0.10;;;;;;;;;;5015516;28;20206;-66
2024/03/29 02:05:04;;;;;;;0.10;0.10;;;;;;;;;;5043524;28;20263;-66
2024/03/29 02:07:31;;;;;;;0.10;0.10;;;;;;;;;;5032014;28;20240;-66
2024/03/29 02:09:58;;;;;;;0.10;0.10;;;;;;;;;;5043274;28;20204;-66
2024/03/29 02:12:24;;;;;;;0.10;0.10;;;;;;;;;;5031731;28;20252;-67
2024/03/29 02:14:50;;;;;;;0.10;0.10;;;;;;;;;;5043454;28;20391;-66
2024/03/29 02:17:16;;;;;;;0.17;0.17;;;;;;;;;;5031933;28;20263;-66
2024/03/29 02:19:43;;;;;;;0.10;0.10;;;;;;;;;;5043468;28;20458;-66
2024/03/29 02:22:12;;;;;;;0.13;0.13;;;;;;;;;;5031834;28;20243;-67
2024/03/29 02:24:40;;;;;;;0.10;0.10;;;;;;;;;;5043060;28;20237;-67
2024/03/29 02:27:07;;;;;;;0.20;0.20;;;;;;;;;;5031862;28;20247;-67
2024/03/29 02:29:33;;;;;;;0.10;0.10;;;;;;;;;;5043444;28;20251;-66
2024/03/29 02:31:59;;;;;;;0.40;0.40;;;;;;;;;;5031948;28;20243;-65
2024/03/29 02:34:27;;;;;;;0.10;0.10;;;;;;;;;;5042889;28;20221;-66
2024/03/29 02:36:53;;;;;;;0.10;0.10;;;;;;;;;;5031881;28;20325;-66
2024/03/29 02:39:19;;;;;;;0.17;0.17;;;;;;;;;;5042821;28;20280;-66
2024/03/29 02:41:47;;;;;;;0.10;0.10;;;;;;;;;;5031865;28;20247;-66
2024/03/29 02:44:15;;;;;;;0.20;0.20;;;;;;;;;;5042662;28;20231;-66
2024/03/29 02:46:42;;;;;;;0.20;0.20;;;;;;;;;;5031929;28;20437;-66
2024/03/29 02:49:07;;;;;;;0.10;0.10;;;;;;;;;;5042584;28;20275;-66
2024/03/29 02:51:33;;;;;;;0.10;0.10;;;;;;;;;;5031756;28;20247;-66
2024/03/29 02:53:59;;;;;;;0.17;0.17;;;;;;;;;;5042622;28;20234;-66
2024/03/29 02:56:26;;;;;;;0.20;0.20;;;;;;;;;;5031578;28;20256;-67
2024/03/29 02:58:53;;;;;;;0.13;0.13;;;;;;;;;;5042444;28;20205;-66
2024/03/29 03:01:20;;;;;;;0.10;0.10;;;;;;;;;;5031690;28;20307;-66
2024/03/29 03:03:45;;;;;;;0.10;0.10;;;;;;;;;;5042452;28;20524;-67
2024/03/29 03:06:11;;;;;;;0.50;0.50;;;;;;;;;;5031791;28;20246;-66
2024/03/29 03:11:22;;;;;;;0.10;0.10;;;;;;;;;;5035350;28;20336;-66
2024/03/29 03:13:48;;;;;;;0.10;0.10;;;;;;;;;;5045945;28;20232;-66
2024/03/29 03:16:16;;;;;;;0.20;0.20;;;;;;;;;;5035234;28;20443;-66
2024/03/29 03:18:41;;;;;;;0.10;0.10;;;;;;;;;;5046060;28;20454;-66
2024/03/29 03:21:08;;;;;;;0.10;0.10;;;;;;;;;;5035355;28;20251;-66
2024/03/29 03:23:34;;;;;;;0.10;0.10;;;;;;;;;;5045973;28;20464;-66
2024/03/29 03:26:00;;;;;;;0.10;0.10;;;;;;;;;;5035366;28;20250;-66
2024/03/29 03:28:27;;;;;;;0.10;0.10;;;;;;;;;;5045601;28;20370;-66
2024/03/29 03:30:53;;;;;;;0.20;0.20;;;;;;;;;;5035526;28;20418;-67
2024/03/29 03:33:21;;;;;;;0.10;0.10;;;;;;;;;;5045592;28;20205;-66
2024/03/29 03:35:46;;;;;;;0.13;0.13;;;;;;;;;;5035538;28;20420;-66
2024/03/29 03:38:13;;;;;;;0.10;0.10;;;;;;;;;;5045424;28;20251;-67
2024/03/29 03:40:39;;;;;;;0.10;0.10;;;;;;;;;;5035391;28;20247;-67
2024/03/29 03:43:06;;;;;;;0.10;0.10;;;;;;;;;;5044893;28;20204;-67
2024/03/29 03:45:33;;;;;;;0.20;0.20;;;;;;;;;;5035575;28;20290;-67
2024/03/29 03:48:00;;;;;;;0.10;0.10;;;;;;;;;;5044875;28;20205;-66
2024/03/29 03:50:26;;;;;;;0.10;0.10;;;;;;;;;;5035441;28;20201;-66
2024/03/29 03:52:53;;;;;;;0.10;0.10;;;;;;;;;;5044826;28;20212;-66
2024/03/29 03:55:18;;;;;;;0.10;0.10;;;;;;;;;;5035235;28;20271;-67
2024/03/29 03:57:44;;;;;;;0.10;0.10;;;;;;;;;;5044892;28;20215;-66
2024/03/29 04:00:10;;;;;;;0.10;0.10;;;;;;;;;;5035642;28;20204;-67
2024/03/29 04:02:37;;;;;;;0.10;0.10;;;;;;;;;;5044564;28;20286;-66
2024/03/29 04:05:02;;;;;;;0.10;0.10;;;;;;;;;;5045616;28;20295;-66
2024/03/29 04:07:30;;;;;;;0.10;0.10;;;;;;;;;;5034037;28;20455;-66
2024/03/29 04:09:55;;;;;;;0.10;0.10;;;;;;;;;;5045340;28;20236;-66
2024/03/29 04:12:22;;;;;;;0.10;0.10;;;;;;;;;;5033853;28;20245;-67
2024/03/29 04:14:47;;;;;;;0.10;0.10;;;;;;;;;;5045299;28;20201;-66
2024/03/29 04:17:14;;;;;;;0.10;0.10;;;;;;;;;;5033966;28;20286;-66
2024/03/29 04:19:39;;;;;;;0.10;0.10;;;;;;;;;;5044921;28;20402;-66
2024/03/29 04:22:06;;;;;;;0.10;0.10;;;;;;;;;;5033297;28;20241;-67
2024/03/29 04:24:33;;;;;;;0.10;0.10;;;;;;;;;;5045318;28;20292;-67
2024/03/29 04:26:59;;;;;;;0.10;0.10;;;;;;;;;;5033941;28;20289;-68
2024/03/29 04:29:25;;;;;;;0.10;0.10;;;;;;;;;;5044883;28;20282;-67
2024/03/29 04:31:51;;;;;;;0.10;0.10;;;;;;;;;;5033951;28;20241;-66
2024/03/29 04:34:16;;;;;;;0.10;0.10;;;;;;;;;;5044698;28;20271;-66
2024/03/29 04:36:43;;;;;;;0.10;0.10;;;;;;;;;;5033917;28;20247;-66
2024/03/29 04:39:09;;;;;;;0.13;0.13;;;;;;;;;;5044885;28;20510;-67
2024/03/29 04:41:37;;;;;;;0.10;0.10;;;;;;;;;;5033684;28;20240;-66
2024/03/29 04:44:04;;;;;;;0.10;0.10;;;;;;;;;;5044275;28;20232;-66
2024/03/29 04:46:30;;;;;;;0.20;0.20;;;;;;;;;;5033674;28;20340;-66
2024/03/29 04:48:57;;;;;;;0.17;0.17;;;;;;;;;;5044585;28;20457;-66
2024/03/29 04:51:23;;;;;;;0.10;0.10;;;;;;;;;;5033621;28;20296;-66
2024/03/29 04:53:50;;;;;;;0.10;0.10;;;;;;;;;;5044283;28;20276;-66
2024/03/29 04:56:17;;;;;;;0.10;0.10;;;;;;;;;;5033566;28;20279;-66
2024/03/29 04:58:45;;;;;;;0.10;0.10;;;;;;;;;;5044140;28;20204;-66
2024/03/29 05:01:12;;;;;;;0.10;0.10;;;;;;;;;;5033405;28;20459;-66
2024/03/29 05:03:38;;;;;;;0.10;0.10;;;;;;;;;;5043755;28;20235;-66
2024/03/29 05:06:05;;;;;;;0.10;0.10;;;;;;;;;;5033458;28;20241;-67
2024/03/29 05:08:31;;;;;;;0.10;0.10;;;;;;;;;;5043613;28;20192;-66
2024/03/29 05:10:58;;;;;;;0.10;0.10;;;;;;;;;;5033640;28;20252;-66
2024/03/29 05:13:24;;;;;;;0.10;0.10;;;;;;;;;;5043591;28;20471;-66
2024/03/29 05:15:52;;;;;;;0.20;0.20;;;;;;;;;;5033549;28;20267;-66
2024/03/29 05:18:18;;;;;;;0.10;0.10;;;;;;;;;;5043452;28;20208;-66
2024/03/29 05:20:49;;;;;;;0.10;0.10;;;;;;;;;;5033461;28;20263;-66
2024/03/29 05:23:16;;;;;;;0.10;0.10;;;;;;;;;;5043435;28;20210;-66
2024/03/29 05:25:42;;;;;;;0.10;0.10;;;;;;;;;;5033465;28;20240;-66
2024/03/29 05:28:09;;;;;;;0.17;0.17;;;;;;;;;;5043323;28;20228;-66
2024/03/29 05:30:35;;;;;;;0.17;0.17;;;;;;;;;;5033435;28;20311;-66
2024/03/29 05:33:03;;;;;;;0.10;0.10;;;;;;;;;;5042901;28;20214;-67
2024/03/29 05:35:30;;;;;;;0.10;0.10;;;;;;;;;;5033479;28;20248;-66
2024/03/29 05:37:56;;;;;;;0.10;0.10;;;;;;;;;;5042947;28;20210;-66
2024/03/29 05:40:25;;;;;;;0.17;0.17;;;;;;;;;;5033553;28;20215;-66
2024/03/29 05:42:51;;;;;;;0.17;0.17;;;;;;;;;;5042775;28;20208;-66
2024/03/29 05:45:25;;;;;;;0.10;0.10;;;;;;;;;;5033178;28;20299;-66
2024/03/29 05:47:52;;;;;;;0.10;0.10;;;;;;;;;;5042951;28;20209;-66
2024/03/29 05:50:20;;;;;;;0.10;0.10;;;;;;;;;;5033429;28;20567;-66
2024/03/29 05:52:47;;;;;;;0.20;0.20;;;;;;;;;;5042663;28;20216;-66
2024/03/29 05:55:13;;;;;;;0.10;0.10;;;;;;;;;;5033325;28;20228;-66
2024/03/29 05:57:41;;;;;;;0.20;0.20;;;;;;;;;;5042451;28;20217;-66
2024/03/29 06:00:08;;;;;;;0.10;0.10;;;;;;;;;;5043425;28;20271;-66
2024/03/29 06:02:35;;;;;;;0.10;0.10;;;;;;;;;;5032149;28;20239;-66
2024/03/29 06:05:01;;;;;;;0.20;0.20;;;;;;;;;;5043494;28;20421;-66
2024/03/29 06:07:29;;;;;;;0.10;0.10;;;;;;;;;;5032025;28;20248;-65
2024/03/29 06:09:55;;;;;;;0.10;0.10;;;;;;;;;;5043221;28;20200;-66
2024/03/29 06:12:22;;;;;;;0.10;0.10;;;;;;;;;;5031777;28;20447;-66
2024/03/29 06:17:32;;;;;;;0.40;0.40;;;;;;;;;;5032153;28;20251;-66
2024/03/29 06:20:02;;;;;;;0.10;0.10;;;;;;;;;;5043471;28;20208;-66
2024/03/29 06:22:30;;;;;;;0.10;0.10;;;;;;;;;;5031903;28;20241;-66
2024/03/29 06:24:59;;;;;;;0.10;0.10;;;;;;;;;;5043305;28;20419;-66
2024/03/29 06:27:25;;;;;;;0.10;0.10;;;;;;;;;;5031735;28;20308;-66
2024/03/29 06:29:52;;;;;;;0.10;0.10;;;;;;;;;;5043305;28;20471;-66
2024/03/29 06:32:18;;;;;;;0.10;0.10;;;;;;;;;;5031770;28;20315;-66
2024/03/29 06:34:44;;;;;;;0.10;0.10;;;;;;;;;;5043321;28;20212;-66
2024/03/29 06:37:11;;;;;;;0.10;0.10;;;;;;;;;;5031571;28;20311;-66
2024/03/29 06:39:39;;;;;;;0.10;0.10;;;;;;;;;;5043210;28;20272;-66
2024/03/29 06:42:06;;;;;;;0.10;0.10;;;;;;;;;;5031754;28;20458;-66
2024/03/29 06:44:33;;;;;;;0.10;0.10;;;;;;;;;;5045209;28;20243;-66
2024/03/29 06:46:59;;;;;;;0.10;0.10;;;;;;;;;;5035714;28;20595;-66
2024/03/29 06:49:26;;;;;;;0.10;0.10;;;;;;;;;;5047074;28;20204;-66
2024/03/29 06:51:53;;;;;;;0.10;0.10;;;;;;;;;;5035619;28;20241;-66
2024/03/29 06:54:22;;;;;;;0.10;0.10;;;;;;;;;;5046823;28;20236;-66
2024/03/29 06:56:49;;;;;;;0.10;0.10;;;;;;;;;;5035763;28;20410;-66
2024/03/29 06:59:16;;;;;;;0.10;0.10;;;;;;;;;;5046382;28;20505;-66
2024/03/29 07:01:42;;;;;;;0.20;0.20;;;;;;;;;;5035553;28;20236;-66
2024/03/29 07:04:08;;;;;;;0.57;0.30;;;;;;;;;;5046206;28;20205;-66
2024/03/29 07:06:37;;;;;;;0.10;0.10;;;;;;;;;;5035568;28;20286;-66
2024/03/29 07:09:04;;;;;;;0.10;0.10;;;;;;;;;;5046252;28;20259;-66
2024/03/29 07:11:30;;;;;;;0.10;0.10;;;;;;;;;;5035373;28;20237;-66
2024/03/29 07:13:58;;;;;;;0.10;0.10;;;;;;;;;;5046343;28;20205;-66
2024/03/29 07:16:24;;;;;;;0.10;0.10;;;;;;;;;;5035466;28;20308;-66
2024/03/29 07:18:51;;;;;;;0.10;0.10;;;;;;;;;;5046193;28;20392;-66
2024/03/29 07:21:17;;;;;;;0.10;0.10;;;;;;;;;;5035327;28;20336;-66
2024/03/29 07:23:43;;;;;;;0.10;0.10;;;;;;;;;;5045671;28;20205;-67
2024/03/29 07:26:11;;;;;;;0.10;0.10;;;;;;;;;;5035272;28;20261;-66
2024/03/29 07:28:37;;;;;;;0.10;0.10;;;;;;;;;;5045764;28;20264;-66
2024/03/29 07:31:08;;;;;;;0.10;0.10;;;;;;;;;;5035352;28;20237;-66
2024/03/29 07:33:35;;;;;;;0.10;0.10;;;;;;;;;;5045503;28;20206;-66
2024/03/29 07:36:02;;;;;;;0.10;0.10;;;;;;;;;;5035436;28;20271;-66
2024/03/29 07:38:28;;;;;;;0.10;0.10;;;;;;;;;;5045450;28;20257;-66
2024/03/29 07:40:55;;;;;;;0.10;0.10;;;;;;;;;;5035303;28;20576;-66
2024/03/29 07:43:22;;;;;;;0.10;0.10;;;;;;;;;;5045332;28;20263;-66
2024/03/29 07:45:48;;;;;;;0.10;0.10;;;;;;;;;;5035096;28;20300;-66
2024/03/29 07:48:17;;;;;;;0.10;0.10;;;;;;;;;;5045151;28;20271;-66
2024/03/29 07:50:43;;;;;;;0.10;0.10;;;;;;;;;;5035286;28;20245;-67
2024/03/29 07:53:10;;;;;;;0.10;0.10;;;;;;;;;;5045092;28;20212;-66
2024/03/29 07:55:36;;;;;;;0.10;0.10;;;;;;;;;;5034021;28;20312;-66
2024/03/29 07:58:03;;;;;;;0.10;0.10;;;;;;;;;;5044935;28;20450;-66
2024/03/29 08:00:32;;;;;;;0.10;0.10;;;;;;;;;;5035567;28;20246;-66
2024/03/29 08:02:58;;;;;;;0.10;0.10;;;;;;;;;;5044819;28;20229;-66
2024/03/29 08:05:26;;;;;;;0.10;0.10;;;;;;;;;;5034981;28;20292;-67
2024/03/29 08:07:53;;;;;;;0.10;0.10;;;;;;;;;;5044417;28;20216;-66
2024/03/29 08:10:19;;;;;;;0.10;0.10;;;;;;;;;;5034908;28;20198;-66
2024/03/29 08:12:45;;;;;;;0.10;0.10;;;;;;;;;;5044605;28;20239;-66
2024/03/29 08:15:12;;;;;;;0.20;0.20;;;;;;;;;;5035511;28;20238;-66
2024/03/29 08:17:38;;;;;;;0.10;0.10;;;;;;;;;;5044374;28;20205;-66
2024/03/29 08:20:05;;;;;;;0.10;0.10;;;;;;;;;;5045468;28;20404;-66
2024/03/29 08:22:33;;;;;;;0.10;0.10;;;;;;;;;;5033914;28;20376;-66
2024/03/29 08:24:59;;;;;;;0.10;0.10;;;;;;;;;;5045390;28;20273;-66
2024/03/29 08:27:26;;;;;;;0.10;0.10;;;;;;;;;;5033837;28;20342;-67
2024/03/29 08:29:52;;;;;;;0.17;0.17;;;;;;;;;;5045023;28;20212;-67
2024/03/29 08:32:19;;;;;;;0.10;0.10;;;;;;;;;;5033630;28;20488;-66
2024/03/29 08:34:45;;;;;;;0.10;0.10;;;;;;;;;;5044814;28;20205;-66
2024/03/29 08:37:11;;;;;;;0.10;0.10;;;;;;;;;;5033520;28;20320;-66
2024/03/29 08:39:39;;;;;;;0.10;0.10;;;;;;;;;;5044709;28;20204;-66
2024/03/29 08:42:06;;;;;;;0.10;0.10;;;;;;;;;;5033662;28;20241;-67
2024/03/29 08:44:32;;;;;;;0.10;0.10;;;;;;;;;;5044610;28;20245;-66
2024/03/29 08:47:01;;;;;;;0.10;0.10;;;;;;;;;;5033456;28;20476;-66
2024/03/29 08:49:27;;;;;;;0.10;0.10;;;;;;;;;;5044682;28;20210;-66
2024/03/29 08:51:53;;;;;;;0.10;0.10;;;;;;;;;;5033377;28;20421;-66
2024/03/29 08:54:20;;;;;;;0.10;0.10;;;;;;;;;;5044537;28;20454;-66
2024/03/29 08:56:48;;;;;;;0.10;0.10;;;;;;;;;;5033363;28;20237;-72
2024/03/29 08:59:15;;;;;;;0.10;0.10;;;;;;;;;;5044369;28;20246;-66
2024/03/29 09:01:42;;;;;;;0.10;0.10;;;;;;;;;;5033326;28;20256;-67
2024/03/29 09:04:11;;;;;;;0.10;0.10;;;;;;;;;;5044117;28;20272;-66
2024/03/29 09:06:37;;;;;;;0.10;0.10;;;;;;;;;;5032945;28;20278;-65
2024/03/29 09:09:04;;;;;;;0.10;0.10;;;;;;;;;;5044255;28;20210;-64
2024/03/29 09:11:31;;;;;;;0.10;0.10;;;;;;;;;;5033306;28;20248;-67
2024/03/29 09:13:59;;;;;;;0.10;0.10;;;;;;;;;;5043879;28;20206;-66
2024/03/29 09:16:25;;;;;;;0.10;0.10;;;;;;;;;;5033141;28;20355;-68
2024/03/29 09:18:52;;;;;;;0.10;0.10;;;;;;;;;;5044109;28;20233;-67
2024/03/29 09:21:19;;;;;;;0.10;0.10;;;;;;;;;;5033362;28;20261;-68
2024/03/29 09:23:46;;;;;;;0.10;0.10;;;;;;;;;;5043505;28;20205;-68
2024/03/29 09:26:14;;;;;;;0.10;0.10;;;;;;;;;;5033098;28;20304;-68
2024/03/29 09:28:40;;;;;;;0.10;0.10;;;;;;;;;;5043770;28;20249;-68
2024/03/29 09:31:08;;;;;;;0.10;0.10;;;;;;;;;;5033004;28;20247;-69
2024/03/29 09:33:34;;;;;;;0.10;0.10;;;;;;;;;;5043722;28;20567;-67
2024/03/29 09:36:01;;;;;;;0.10;0.10;;;;;;;;;;5033400;28;20305;-68
2024/03/29 09:38:27;;;;;;;0.10;0.10;;;;;;;;;;5043374;28;20211;-68
2024/03/29 09:40:58;;;;;;;0.10;0.10;;;;;;;;;;5033150;28;20310;-68
2024/03/29 09:43:25;;;;;;;0.10;0.10;;;;;;;;;;5043288;28;20279;-68
2024/03/29 09:45:54;;;;;;;0.10;0.10;;;;;;;;;;5033015;28;20454;-68
2024/03/29 09:48:22;;;;;;;0.10;0.10;;;;;;;;;;5043153;28;20215;-67
2024/03/29 09:50:49;;;;;;;0.10;0.10;;;;;;;;;;5032776;28;20504;-67
2024/03/29 09:53:16;;;;;;;0.10;0.10;;;;;;;;;;5043002;28;20399;-68
2024/03/29 09:55:43;;;;;;;0.10;0.10;;;;;;;;;;5032942;28;20252;-67
2024/03/29 09:58:09;;;;;;;0.10;0.10;;;;;;;;;;5042912;28;20451;-68
2024/03/29 10:00:35;;;;;;;0.10;0.10;;;;;;;;;;5033210;28;20711;-68
2024/03/29 10:03:02;;;;;;;0.10;0.10;;;;;;;;;;5042905;28;20238;-68
2024/03/29 10:05:30;;;;;;;0.10;0.10;;;;;;;;;;5033303;28;20253;-68
2024/03/29 10:07:57;;;;;;;0.10;0.10;;;;;;;;;;5042650;28;20235;-68
2024/03/29 10:10:24;;;;;;;0.73;0.73;;;;;;;;;;5033068;28;20292;-68
2024/03/29 10:12:50;;;;;;;0.10;0.10;;;;;;;;;;5042326;28;20275;-68
2024/03/29 10:15:18;;;;;;;0.10;0.10;;;;;;;;;;5032847;28;20277;-68
2024/03/29 10:17:48;;;;;;;0.10;0.10;;;;;;;;;;5042154;28;20394;-67
2024/03/29 10:20:16;;;;;;;0.10;0.10;;;;;;;;;;5032852;28;20367;-68
2024/03/29 10:22:44;;;;;;;0.10;0.10;;;;;;;;;;5042529;28;20214;-68
2024/03/29 10:25:10;;;;;;;0.10;0.10;;;;;;;;;;5032862;28;20253;-68
2024/03/29 10:27:37;;;;;;;0.10;0.10;;;;;;;;;;5042336;28;20233;-69
2024/03/29 10:30:04;;;;;;;0.10;0.10;;;;;;;;;;5043039;28;20207;-67
2024/03/29 10:32:30;;;;;;;0.10;0.10;;;;;;;;;;5031899;28;20253;-68
2024/03/29 10:34:57;;;;;;;0.10;0.10;;;;;;;;;;5043054;28;20237;-65
2024/03/29 10:37:26;;;;;;;0.10;0.10;;;;;;;;;;5031733;28;20514;-68
2024/03/29 10:39:54;;;;;;;0.10;0.10;;;;;;;;;;5043288;28;20266;-67
2024/03/29 10:42:23;;;;;;;0.10;0.10;;;;;;;;;;5031812;28;20268;-67
2024/03/29 10:44:49;;;;;;;0.10;0.10;;;;;;;;;;5043290;28;20390;-67
2024/03/29 10:47:18;;;;;;;0.10;0.10;;;;;;;;;;5031771;28;20244;-66
2024/03/29 10:49:45;;;;;;;0.10;0.10;;;;;;;;;;5043152;28;20266;-67
2024/03/29 10:52:13;;;;;;;0.10;0.10;;;;;;;;;;5031616;28;20251;-68
2024/03/29 10:54:41;;;;;;;0.10;0.10;;;;;;;;;;5043180;28;20273;-68
2024/03/29 10:57:13;;;;;;;0.10;0.10;;;;;;;;;;5031645;28;20438;-68
2024/03/29 10:59:43;;;;;;;0.10;0.10;;;;;;;;;;5043198;28;20441;-68
2024/03/29 11:02:13;;;;;;;0.10;0.10;;;;;;;;;;5031661;28;20252;-66
2024/03/29 11:04:40;;;;;;;0.10;0.10;;;;;;;;;;5042932;28;20224;-68
2024/03/29 11:07:07;;;;;;;0.10;0.10;;;;;;;;;;5031618;28;20260;-68
2024/03/29 11:09:34;;;;;;;0.10;0.10;;;;;;;;;;5042770;28;20278;-67
2024/03/29 11:12:02;;;;;;;0.10;0.10;;;;;;;;;;5031583;28;20318;-67
2024/03/29 11:14:32;;;;;;;0.10;0.10;;;;;;;;;;5042719;28;20235;-67
2024/03/29 11:16:59;;;;;;;0.10;0.10;;;;;;;;;;5031566;28;20254;-68
2024/03/29 11:19:25;;;;;;;0.10;0.10;;;;;;;;;;5042487;28;20362;-67
2024/03/29 11:21:53;;;;;;;0.10;0.10;;;;;;;;;;5031582;28;20301;-68
2024/03/29 11:24:19;;;;;;;0.10;0.10;;;;;;;;;;5042345;28;20198;-67
2024/03/29 11:26:46;;;;;;;0.10;0.10;;;;;;;;;;5031379;28;20476;-67
2024/03/29 11:29:19;;;;;;;0.10;0.10;;;;;;;;;;5042758;28;20274;-67
2024/03/29 11:31:47;;;;;;;0.10;0.10;;;;;;;;;;5035144;28;20246;-67
2024/03/29 11:34:13;;;;;;;0.10;0.10;;;;;;;;;;5045789;28;20247;-67
2024/03/29 11:36:40;;;;;;;0.10;0.10;;;;;;;;;;5034914;28;20305;-67
2024/03/29 11:39:07;;;;;;;0.10;0.10;;;;;;;;;;5045938;28;20384;-68
2024/03/29 11:41:34;;;;;;;0.10;0.10;;;;;;;;;;5034960;28;20271;-68
2024/03/29 11:44:00;;;;;;;0.10;0.10;;;;;;;;;;5045475;28;20234;-67
2024/03/29 11:46:28;;;;;;;0.10;0.10;;;;;;;;;;5034742;28;20310;-67
2024/03/29 11:48:55;;;;;;;0.10;0.10;;;;;;;;;;5045721;28;20228;-67
2024/03/29 11:51:24;;;;;;;0.10;0.10;;;;;;;;;;5034665;28;20307;-68
2024/03/29 11:53:51;;;;;;;0.07;0.07;;;;;;;;;;5045523;28;20213;-67
2024/03/29 11:56:17;;;;;;;0.20;0.20;;;;;;;;;;5034698;28;20300;-67
2024/03/29 11:58:44;;;;;;;0.10;0.10;;;;;;;;;;5045107;28;20204;-68
2024/03/29 12:01:10;;;;;;;0.10;0.10;;;;;;;;;;5034825;28;20278;-67
2024/03/29 12:03:39;;;;;;;0.10;0.10;;;;;;;;;;5044846;28;20279;-68
2024/03/29 12:06:07;;;;;;;0.10;0.10;;;;;;;;;;5034672;28;20443;-67
2024/03/29 12:08:34;;;;;;;0.10;0.10;;;;;;;;;;5044816;28;20226;-67
2024/03/29 12:11:02;;;;;;;0.00;0.00;;;;;;;;;;5034680;28;20448;-69
2024/03/29 12:13:28;;;;;;;0.10;0.10;;;;;;;;;;5044951;28;20243;-67
2024/03/29 12:15:55;;;;;;;0.10;0.10;;;;;;;;;;5034524;28;20306;-67
2024/03/29 12:18:22;;;;;;;0.10;0.10;;;;;;;;;;5044464;28;20212;-67
2024/03/29 12:20:49;;;;;;;0.10;0.10;;;;;;;;;;5034603;28;20300;-67
2024/03/29 12:23:16;;;;;;;0.10;0.10;;;;;;;;;;5044615;28;20242;-67
2024/03/29 12:25:43;;;;;;;0.30;0.30;;;;;;;;;;5034676;28;20240;-67
2024/03/29 12:28:10;;;;;;;0.10;0.10;;;;;;;;;;5044579;28;20556;-67
2024/03/29 12:30:36;;;;;;;0.10;0.10;;;;;;;;;;5034287;28;20244;-68
2024/03/29 12:33:03;;;;;;;0.10;0.10;;;;;;;;;;5044116;28;20206;-67
2024/03/29 12:35:30;;;;;;;0.10;0.10;;;;;;;;;;5034732;28;20245;-67
2024/03/29 12:37:58;;;;;;;0.10;0.10;;;;;;;;;;5044250;28;20388;-71
2024/03/29 12:40:26;;;;;;;0.00;0.00;;;;;;;;;;5034282;28;20213;-67
2024/03/29 12:42:53;;;;;;;0.10;0.10;;;;;;;;;;5043365;28;20245;-67
2024/03/29 12:45:19;;;;;;;0.03;0.03;;;;;;;;;;5034239;28;20344;-67
2024/03/29 12:47:46;;;;;;;12.80;11.90;;;;;;;;;;5043760;28;20417;-67
2024/03/29 12:50:14;;;;;;;0.55;0.43;;;;;;;;;;5034503;28;20372;-68
2024/03/29 12:52:41;;;;;;;0.75;0.75;;;;;;;;;;5043668;28;20287;-68
2024/03/29 12:55:08;;;;;;;0.10;0.10;;;;;;;;;;5044741;28;20215;-68
2024/03/29 12:57:36;;;;;;;0.10;0.10;;;;;;;;;;5016828;28;20223;-67
2024/03/29 13:00:03;;;;;;;0.13;0.13;;;;;;;;;;5044685;28;20335;-67
2024/03/29 13:02:30;;;;;;;0.10;0.10;;;;;;;;;;5033199;28;20285;-67
2024/03/29 13:04:56;;;;;;;0.10;0.10;;;;;;;;;;5044353;28;20234;-67
2024/03/29 13:07:22;;;;;;;0.30;0.30;;;;;;;;;;5032948;28;20300;-67
2024/03/29 13:09:49;;;;;;;0.10;0.10;;;;;;;;;;5044545;28;20207;-67
2024/03/29 13:12:15;;;;;;;0.10;0.10;;;;;;;;;;5032868;28;20259;-67
2024/03/29 13:14:43;;;;;;;0.10;0.10;;;;;;;;;;5044305;28;20233;-67
2024/03/29 13:17:10;;;;;;;0.00;0.00;;;;;;;;;;5032904;28;20237;-67
2024/03/29 13:19:36;;;;;;;0.00;0.00;;;;;;;;;;5044364;28;20233;-66
2024/03/29 13:22:02;;;;;;;0.00;0.00;;;;;;;;;;5032754;28;20260;-67
2024/03/29 13:24:29;;;;;;;0.10;0.10;;;;;;;;;;5044218;28;20393;-67
2024/03/29 13:26:55;;;;;;;0.10;0.10;;;;;;;;;;5032729;28;20249;-67
2024/03/29 13:29:22;;;;;;;0.00;0.00;;;;;;;;;;5043801;28;20220;-67
2024/03/29 13:31:50;;;;;;;0.10;0.10;;;;;;;;;;5032831;28;20271;-67
2024/03/29 13:34:17;;;;;;;0.10;0.10;;;;;;;;;;5043884;28;20215;-67
2024/03/29 13:36:44;;;;;;;0.10;0.10;;;;;;;;;;5032743;28;20248;-68
2024/03/29 13:39:13;;;;;;;0.10;0.10;;;;;;;;;;5043434;28;20246;-68
2024/03/29 13:41:40;;;;;;;0.05;0.05;;;;;;;;;;5032896;28;20240;-67
2024/03/29 13:44:06;;;;;;;0.10;0.10;;;;;;;;;;5043370;28;20200;-67
2024/03/29 13:46:33;;;;;;;0.10;0.10;;;;;;;;;;5032509;28;20457;-67
2024/03/29 13:49:01;;;;;;;0.00;0.00;;;;;;;;;;5043565;28;20292;-67
2024/03/29 13:51:28;;;;;;;0.03;0.03;;;;;;;;;;5032443;28;20242;-66
2024/03/29 13:53:55;;;;;;;0.65;0.65;;;;;;;;;;5043059;28;20476;-67
2024/03/29 13:56:21;;;;;;;0.10;0.10;;;;;;;;;;5032564;28;20246;-67
2024/03/29 13:58:48;;;;;;;0.10;0.10;;;;;;;;;;5043175;28;20201;-67
2024/03/29 14:01:14;;;;;;;0.10;0.10;;;;;;;;;;5032649;28;20454;-67
2024/03/29 14:03:40;;;;;;;0.10;0.10;;;;;;;;;;5042912;28;20206;-67
2024/03/29 14:06:08;;;;;;;0.10;0.10;;;;;;;;;;5032565;28;20444;-67
2024/03/29 14:08:35;;;;;;;0.20;0.20;;;;;;;;;;5042700;28;20224;-66
2024/03/29 14:11:02;;;;;;;0.10;0.10;;;;;;;;;;5032700;28;20267;-67
2024/03/29 14:13:28;;;;;;;0.52;0.35;;;;;;;;;;5042731;28;20219;-68
2024/03/29 14:15:55;;;;;;;0.08;0.08;;;;;;;;;;5032846;28;20287;-65
2024/03/29 14:18:21;;;;;;;0.10;0.10;;;;;;;;;;5042781;28;20216;-68
2024/03/29 14:20:48;;;;;;;0.10;0.10;;;;;;;;;;5032785;28;20252;-67
2024/03/29 14:23:19;;;;;;;0.22;0.22;;;;;;;;;;5042679;28;20192;-67
2024/03/29 14:25:45;;;;;;;0.10;0.10;;;;;;;;;;5032456;28;20253;-67
2024/03/29 14:28:11;;;;;;;0.10;0.10;;;;;;;;;;5042462;28;20228;-67
2024/03/29 14:30:38;;;;;;;0.10;0.10;;;;;;;;;;5032488;28;20306;-67
2024/03/29 14:33:07;;;;;;;0.10;0.10;;;;;;;;;;5042381;28;20225;-67
2024/03/29 14:35:35;;;;;;;0.10;0.10;;;;;;;;;;5032806;28;20236;-67
2024/03/29 14:38:01;;;;;;;0.10;0.10;;;;;;;;;;5042394;28;20500;-69
2024/03/29 14:40:29;;;;;;;0.10;0.10;;;;;;;;;;5032546;28;20215;-66
2024/03/29 14:42:57;;;;;;;0.25;0.13;;;;;;;;;;5042355;28;20512;-67
2024/03/29 14:45:24;;;;;;;0.10;0.10;;;;;;;;;;5032704;28;20434;-67
2024/03/29 14:47:50;;;;;;;0.10;0.10;;;;;;;;;;5042180;28;20420;-66
2024/03/29 14:50:18;;;;;;;0.10;0.10;;;;;;;;;;5032466;28;20275;-67
2024/03/29 14:52:45;;;;;;;0.10;0.10;;;;;;;;;;5041993;28;20212;-67
2024/03/29 14:55:11;;;;;;;0.10;0.10;;;;;;;;;;5032875;28;20398;-68
2024/03/29 14:57:39;;;;;;;0.10;0.10;;;;;;;;;;5042057;28;20228;-67
2024/03/29 15:00:06;;;;;;;0.30;0.30;;;;;;;;;;5042675;28;20204;-67
2024/03/29 15:02:32;;;;;;;0.00;0.00;;;;;;;;;;5031717;28;20243;-67
2024/03/29 15:04:59;;;;;;;0.10;0.10;;;;;;;;;;5044182;28;20258;-67
2024/03/29 15:07:25;;;;;;;0.10;0.10;;;;;;;;;;5035064;28;20244;-67
2024/03/29 15:09:52;;;;;;;0.10;0.10;;;;;;;;;;5046382;28;20282;-68
2024/03/29 15:12:18;;;;;;;0.10;0.10;;;;;;;;;;5035096;28;20243;-68
2024/03/29 15:14:46;;;;;;;0.10;0.10;;;;;;;;;;5046385;28;20207;-68
2024/03/29 15:17:12;;;;;;;0.00;0.00;;;;;;;;;;5035232;28;20433;-67
2024/03/29 15:19:41;;;;;;;0.10;0.10;;;;;;;;;;5046752;28;20204;-67
2024/03/29 15:22:08;;;;;;;0.10;0.10;;;;;;;;;;5034868;28;20264;-67
2024/03/29 15:24:34;;;;;;;0.10;0.10;;;;;;;;;;5046648;28;20211;-67
2024/03/29 15:27:02;;;;;;;0.10;0.10;;;;;;;;;;5034984;28;20244;-67
2024/03/29 15:29:28;;;;;;;0.00;0.00;;;;;;;;;;5046026;28;20454;-67
2024/03/29 15:31:55;;;;;;;0.10;0.10;;;;;;;;;;5035010;28;20301;-67
2024/03/29 15:34:22;;;;;;;0.10;0.10;;;;;;;;;;5045930;28;20205;-67
2024/03/29 15:36:48;;;;;;;0.10;0.10;;;;;;;;;;5034989;28;20254;-67
2024/03/29 15:39:19;;;;;;;0.10;0.10;;;;;;;;;;5045872;28;20238;-67
2024/03/29 15:41:46;;;;;;;0.10;0.10;;;;;;;;;;5034694;28;20241;-68
2024/03/29 15:44:12;;;;;;;0.10;0.10;;;;;;;;;;5046022;28;20208;-67
2024/03/29 15:46:38;;;;;;;0.10;0.10;;;;;;;;;;5034949;28;20313;-67
2024/03/29 15:49:06;;;;;;;0.10;0.10;;;;;;;;;;5045815;28;20259;-67
2024/03/29 15:51:33;;;;;;;0.10;0.10;;;;;;;;;;5034794;28;20466;-68
2024/03/29 15:54:01;;;;;;;0.10;0.10;;;;;;;;;;5045414;28;20207;-67
2024/03/29 15:56:29;;;;;;;0.10;0.10;;;;;;;;;;5034689;28;20241;-67
2024/03/29 15:58:56;;;;;;;0.10;0.10;;;;;;;;;;5045641;28;20453;-72
2024/03/29 16:01:23;;;;;;;0.10;0.10;;;;;;;;;;5034531;28;20245;-73
2024/03/29 16:03:49;;;;;;;0.10;0.10;;;;;;;;;;5045255;28;20234;-73
2024/03/29 16:06:18;;;;;;;0.10;0.10;;;;;;;;;;5034712;28;20307;-72
2024/03/29 16:08:44;;;;;;;0.10;0.10;;;;;;;;;;5044855;28;20235;-72
2024/03/29 16:11:10;;;;;;;0.10;0.10;;;;;;;;;;5034416;28;20315;-73
2024/03/29 16:13:37;;;;;;;0.10;0.10;;;;;;;;;;5044932;28;20275;-73
2024/03/29 16:16:03;;;;;;;0.10;0.10;;;;;;;;;;5033636;28;20241;-70
2024/03/29 16:18:31;;;;;;;6.82;6.45;;;;;;;;;;5045011;28;20245;-71
2024/03/29 16:20:58;;;;;;;0.10;0.10;;;;;;;;;;5034518;28;20244;-71
2024/03/29 16:23:26;;;;;;;0.20;0.20;;;;;;;;;;5044840;28;20505;-71
2024/03/29 16:25:52;;;;;;;0.10;0.10;;;;;;;;;;5034809;28;20271;-71
2024/03/29 16:28:21;;;;;;;0.10;0.10;;;;;;;;;;5044661;28;20259;-71
2024/03/29 16:30:47;;;;;;;0.00;0.00;;;;;;;;;;5034549;28;20254;-71